createdAt,value
2023-04-01T00:01:15.553Z,92.72
2023-04-01T00:06:19.282Z,92.54
2023-04-01T00:11:21.561Z,92.36
2023-04-01T00:16:23.687Z,92.16
2023-04-01T00:21:25.725Z,92.08
2023-04-01T00:26:28.014Z,92.11
2023-04-01T00:31:31.214Z,92.25
2023-04-01T00:36:33.822Z,92.05
2023-04-01T00:41:36.103Z,91.85
2023-04-01T00:46:38.252Z,91.74
2023-04-01T00:51:42.936Z,91.81
2023-04-01T00:56:56.666Z,91.21
2023-04-01T01:01:58.504Z,90.88
2023-04-01T01:07:19.182Z,90.47
2023-04-01T01:12:41.636Z,90.20
2023-04-01T01:17:48.244Z,89.99
2023-04-01T01:22:58.814Z,89.93
2023-04-01T01:28:26.060Z,89.44
2023-04-01T01:33:45.060Z,90.04
2023-04-01T01:38:50.721Z,90.26
2023-04-01T01:43:57.259Z,90.23
2023-04-01T01:49:00.930Z,90.16
2023-04-01T01:54:03.225Z,90.12
2023-04-01T01:59:10.823Z,90.54
2023-04-01T02:04:15.345Z,91.20
2023-04-01T02:09:17.244Z,91.01
2023-04-01T02:14:37.854Z,90.34
2023-04-01T02:19:53.378Z,90.30
2023-04-01T02:25:01.677Z,90.59
2023-04-01T02:30:05.104Z,90.58
2023-04-01T02:35:13.932Z,90.55
2023-04-01T02:40:17.246Z,91.20
2023-04-01T02:45:19.629Z,91.39
2023-04-01T02:50:22.333Z,91.79
2023-04-01T02:55:24.106Z,92.00
2023-04-01T03:00:27.106Z,92.27
2023-04-01T03:05:29.192Z,92.20
2023-04-01T03:10:31.175Z,92.19
2023-04-01T03:15:33.457Z,92.29
2023-04-01T03:20:35.842Z,92.31
2023-04-01T03:25:37.617Z,91.50
2023-04-01T03:30:40.632Z,91.51
2023-04-01T03:35:42.496Z,91.67
2023-04-01T03:40:45.392Z,91.39
2023-04-01T03:45:49.156Z,91.13
2023-04-01T03:50:50.995Z,91.06
2023-04-01T03:55:53.175Z,90.96
2023-04-01T04:00:55.466Z,91.07
2023-04-01T04:05:57.345Z,91.60
2023-04-01T04:10:59.527Z,92.27
2023-04-01T04:16:01.335Z,91.88
2023-04-01T04:21:04.200Z,91.65
2023-04-01T04:26:08.643Z,91.87
2023-04-01T04:31:11.146Z,91.95
2023-04-01T04:36:14.273Z,92.32
2023-04-01T04:41:18.362Z,93.08
2023-04-01T04:46:20.674Z,93.29
2023-04-01T04:51:23.053Z,93.19
2023-04-01T04:56:26.556Z,93.31
2023-04-01T05:01:29.055Z,93.13
2023-04-01T05:06:31.949Z,92.99
2023-04-01T05:11:33.722Z,92.95
2023-04-01T05:16:36.035Z,92.93
2023-04-01T05:21:37.991Z,92.85
2023-04-01T05:26:39.764Z,92.75
2023-04-01T05:31:42.251Z,92.56
2023-04-01T05:36:44.949Z,92.29
2023-04-01T05:41:46.722Z,92.32
2023-04-01T05:46:48.504Z,91.92
2023-04-01T05:51:51.808Z,91.77
2023-04-01T05:56:53.487Z,91.63
2023-04-01T06:01:55.362Z,91.58
2023-04-01T06:06:57.249Z,91.37
2023-04-01T06:12:01.770Z,91.08
2023-04-01T06:17:25.724Z,90.94
2023-04-01T06:23:08.445Z,90.77
2023-04-01T06:28:38.361Z,90.71
2023-04-01T06:34:02.535Z,90.57
2023-04-01T06:39:22.843Z,90.43
2023-04-01T06:44:46.324Z,90.29
2023-04-01T06:50:11.358Z,90.23
2023-04-01T06:55:33.930Z,90.24
2023-04-01T07:00:40.602Z,90.25
2023-04-01T07:05:43.191Z,90.18
2023-04-01T07:10:51.007Z,90.08
2023-04-01T07:16:02.206Z,89.91
2023-04-01T07:21:05.621Z,89.91
2023-04-01T07:26:26.092Z,90.11
2023-04-01T07:31:52.740Z,90.33
2023-04-01T07:36:55.273Z,90.43
2023-04-01T07:42:16.610Z,90.53
2023-04-01T07:47:41.740Z,90.44
2023-04-01T07:53:17.092Z,90.43
2023-04-01T07:58:32.415Z,90.55
2023-04-01T08:03:50.293Z,90.53
2023-04-01T08:08:55.390Z,90.66
2023-04-01T08:14:09.858Z,90.62
2023-04-01T08:19:20.574Z,90.76
2023-04-01T08:24:47.672Z,90.64
2023-04-01T08:29:59.415Z,90.53
2023-04-01T08:35:33.010Z,90.14
2023-04-01T08:40:52.014Z,89.13
2023-04-01T08:46:14.509Z,88.97
2023-04-01T08:51:37.971Z,88.89
2023-04-01T08:57:03.311Z,88.79
2023-04-01T09:02:32.705Z,87.84
2023-04-01T09:07:56.291Z,86.24
2023-04-01T09:13:19.777Z,85.88
2023-04-01T09:18:43.277Z,84.97
2023-04-01T09:23:58.048Z,82.83
2023-04-01T09:29:15.698Z,82.78
2023-04-01T09:34:57.807Z,81.91
2023-04-01T09:40:15.970Z,81.59
2023-04-01T09:45:46.870Z,82.21
2023-04-01T09:50:57.716Z,82.45
2023-04-01T09:56:20.592Z,82.47
2023-04-01T10:01:46.572Z,82.85
2023-04-01T10:07:17.376Z,82.80
2023-04-01T10:12:59.855Z,82.84
2023-04-01T10:18:14.375Z,82.81
2023-04-01T10:23:22.096Z,82.95
2023-04-01T10:28:26.733Z,82.75
2023-04-01T10:33:49.088Z,82.60
2023-04-01T10:39:28.854Z,81.77
2023-04-01T10:44:56.035Z,81.37
2023-04-01T10:50:19.406Z,81.37
2023-04-01T10:55:42.641Z,81.20
2023-04-01T11:00:58.719Z,81.12
2023-04-01T11:06:32.104Z,81.41
2023-04-01T11:12:11.790Z,81.29
2023-04-01T11:17:32.139Z,80.78
2023-04-01T11:22:52.807Z,80.30
2023-04-01T11:28:41.987Z,80.14
2023-04-01T11:34:05.869Z,79.76
2023-04-01T11:39:11.099Z,79.92
2023-04-01T11:44:18.638Z,80.23
2023-04-01T11:49:42.324Z,80.67
2023-04-01T11:55:04.684Z,80.94
2023-04-01T12:00:34.723Z,81.79
2023-04-01T12:06:07.794Z,82.40
2023-04-01T12:11:25.071Z,82.70
2023-04-01T12:16:36.821Z,82.89
2023-04-01T12:21:44.389Z,82.75
2023-04-01T12:27:17.698Z,82.77
2023-04-01T12:32:19.758Z,82.73
2023-04-01T12:37:40.709Z,82.25
2023-04-01T12:43:21.192Z,81.90
2023-04-01T12:48:23.161Z,81.84
2023-04-01T12:53:53.101Z,81.99
2023-04-01T12:59:13.374Z,81.80
2023-04-01T13:04:18.927Z,81.69
2023-04-01T13:09:58.534Z,81.66
2023-04-01T13:15:25.999Z,81.76
2023-04-01T13:20:46.226Z,81.83
2023-04-01T13:26:02.426Z,81.75
2023-04-01T13:31:41.031Z,81.82
2023-04-01T13:37:02.847Z,82.05
2023-04-01T13:42:27.120Z,82.64
2023-04-01T13:47:51.252Z,82.89
2023-04-01T13:53:22.273Z,83.56
2023-04-01T13:58:39.509Z,84.10
2023-04-01T14:04:15.350Z,84.92
2023-04-01T14:09:49.106Z,85.24
2023-04-01T14:14:50.674Z,85.66
2023-04-01T14:20:23.988Z,85.92
2023-04-01T14:25:44.495Z,86.24
2023-04-01T14:30:56.122Z,86.50
2023-04-01T14:36:29.628Z,87.31
2023-04-01T14:41:44.610Z,86.97
2023-04-01T14:47:03.277Z,87.27
2023-04-01T14:52:30.840Z,87.30
2023-04-01T14:57:33.097Z,87.43
2023-04-01T15:02:50.520Z,87.86
2023-04-01T15:08:08.152Z,87.77
2023-04-01T15:13:30.628Z,87.95
2023-04-01T15:18:57.145Z,88.33
2023-04-01T15:24:14.102Z,88.48
2023-04-01T15:29:39.210Z,88.72
2023-04-01T15:35:05.347Z,88.84
2023-04-01T15:40:23.712Z,89.11
2023-04-01T15:45:52.723Z,89.36
2023-04-01T15:51:03.823Z,89.46
2023-04-01T15:56:25.048Z,89.36
2023-04-01T16:01:35.264Z,89.40
2023-04-01T16:07:05.558Z,89.56
2023-04-01T16:12:25.975Z,89.88
2023-04-01T16:18:02.516Z,90.07
2023-04-01T16:24:05.443Z,90.33
2023-04-01T16:29:21.988Z,90.68
2023-04-01T16:34:39.325Z,90.90
2023-04-01T16:40:05.988Z,91.08
2023-04-01T16:45:08.998Z,91.23
2023-04-01T16:50:24.206Z,91.32
2023-04-01T16:55:47.655Z,91.37
2023-04-01T17:00:52.052Z,91.33
2023-04-01T17:06:21.311Z,91.37
2023-04-01T17:11:32.002Z,91.34
2023-04-01T17:16:55.486Z,91.26
2023-04-01T17:22:19.177Z,91.19
2023-04-01T17:27:30.070Z,91.12
2023-04-01T17:33:16.686Z,91.08
2023-04-01T17:38:31.050Z,91.05
2023-04-01T17:43:48.697Z,91.14
2023-04-01T17:49:18.446Z,91.24
2023-04-01T17:54:26.858Z,91.29
2023-04-01T17:59:38.221Z,91.40
2023-04-01T18:04:58.574Z,91.43
2023-04-01T18:10:08.393Z,91.48
2023-04-01T18:15:19.316Z,91.46
2023-04-01T18:20:30.931Z,91.42
2023-04-01T18:25:43.672Z,91.43
2023-04-01T18:31:02.526Z,91.50
2023-04-01T18:36:11.303Z,91.65
2023-04-01T18:41:30.449Z,91.73
2023-04-01T18:46:52.295Z,91.74
2023-04-01T18:51:59.298Z,91.78
2023-04-01T18:57:20.943Z,91.78
2023-04-01T19:02:32.866Z,91.71
2023-04-01T19:07:38.017Z,91.65
2023-04-01T19:12:51.645Z,91.63
2023-04-01T19:17:59.628Z,91.57
2023-04-01T19:23:20.902Z,91.50
2023-04-01T19:28:51.048Z,91.46
2023-04-01T19:34:31.115Z,91.41
2023-04-01T19:39:58.072Z,91.35
2023-04-01T19:45:23.616Z,91.40
2023-04-01T19:50:38.900Z,91.46
2023-04-01T19:55:58.496Z,91.47
2023-04-01T20:01:04.067Z,91.48
2023-04-01T20:06:34.210Z,91.49
2023-04-01T20:11:36.302Z,91.52
2023-04-01T20:17:09.295Z,91.55
2023-04-01T20:22:35.867Z,91.58
2023-04-01T20:27:50.806Z,91.68
2023-04-01T20:33:11.647Z,91.74
2023-04-01T20:38:40.702Z,91.76
2023-04-01T20:44:35.690Z,91.72
2023-04-01T20:49:42.414Z,91.72
2023-04-01T20:54:56.340Z,91.78
2023-04-01T21:00:36.615Z,91.80
2023-04-01T21:05:41.371Z,91.76
2023-04-01T21:11:02.802Z,91.79
2023-04-01T21:16:27.674Z,91.85
2023-04-01T21:21:52.014Z,91.87
2023-04-01T21:27:14.804Z,91.92
2023-04-01T21:32:54.280Z,91.93
2023-04-01T21:37:59.095Z,91.88
2023-04-01T21:43:17.051Z,91.88
2023-04-01T21:48:45.262Z,91.92
2023-04-01T21:54:25.334Z,91.96
2023-04-01T21:59:36.325Z,91.95
2023-04-01T22:05:14.322Z,91.87
2023-04-01T22:10:23.678Z,91.84
2023-04-01T22:15:55.999Z,91.77
2023-04-01T22:21:07.286Z,91.68
2023-04-01T22:26:31.018Z,91.65
2023-04-01T22:31:46.986Z,91.59
2023-04-01T22:37:07.694Z,91.56
2023-04-01T22:42:39.778Z,91.57
2023-04-01T22:47:57.981Z,91.57
2023-04-01T22:53:29.801Z,91.57
2023-04-01T22:58:39.199Z,91.63
2023-04-01T23:03:45.034Z,91.69
2023-04-01T23:09:14.361Z,91.80
2023-04-01T23:14:27.182Z,91.86
2023-04-01T23:20:01.120Z,91.89
2023-04-01T23:25:21.218Z,91.91
2023-04-01T23:30:41.017Z,91.90
2023-04-01T23:35:49.277Z,91.80
2023-04-01T23:40:54.192Z,91.68
2023-04-01T23:45:56.898Z,91.59
2023-04-01T23:50:59.788Z,91.52
2023-04-01T23:56:05.142Z,91.43
